Aviation Digital Data Service (ADDS)

Output produced by METARs form (0608 UTC 01 July 2016)
found at http://aviationweather.gov/adds/metars/
 
KBPT 010520Z 0106/0206 VRB03KT P6SM SKC 
     FM011500 VRB05KT P6SM FEW030